createdAt,value
2019-02-21T00:02:17.162Z,15.30
2019-02-21T00:04:44.334Z,18.47
2019-02-21T00:07:11.524Z,14.00
2019-02-21T00:09:38.697Z,18.30
2019-02-21T00:12:05.882Z,21.87
2019-02-21T00:14:33.114Z,16.43
2019-02-21T00:17:00.295Z,20.43
2019-02-21T00:19:27.476Z,18.73
2019-02-21T00:21:55.107Z,15.10
2019-02-21T00:24:22.276Z,15.93
2019-02-21T00:26:49.489Z,21.47
2019-02-21T00:29:16.653Z,20.07
2019-02-21T00:31:43.836Z,17.00
2019-02-21T00:34:11.097Z,14.40
2019-02-21T00:36:38.362Z,13.87
2019-02-21T00:39:06.694Z,13.73
2019-02-21T00:41:33.927Z,14.57
2019-02-21T00:44:01.086Z,14.70
2019-02-21T00:46:28.287Z,18.40
2019-02-21T00:48:55.469Z,14.57
2019-02-21T00:51:22.661Z,16.20
2019-02-21T00:53:49.832Z,16.23
2019-02-21T00:56:17.620Z,14.10
2019-02-21T00:58:45.321Z,10.57
2019-02-21T01:01:12.503Z,19.07
2019-02-21T01:03:39.685Z,13.00
2019-02-21T01:06:06.846Z,12.90
2019-02-21T01:08:34.043Z,17.37
2019-02-21T01:11:01.475Z,15.93
2019-02-21T01:13:28.665Z,19.47
2019-02-21T01:15:55.834Z,13.50
2019-02-21T01:18:23.031Z,13.00
2019-02-21T01:20:50.199Z,18.70
2019-02-21T01:23:17.367Z,12.53
2019-02-21T01:25:45.086Z,19.37
2019-02-21T01:28:12.266Z,17.83
2019-02-21T01:30:39.464Z,14.43
2019-02-21T01:33:06.627Z,14.63
2019-02-21T01:35:33.809Z,14.20
2019-02-21T01:38:01.005Z,14.40
2019-02-21T01:40:28.262Z,18.73
2019-02-21T01:42:55.525Z,16.07
2019-02-21T01:45:22.687Z,12.57
2019-02-21T01:47:49.848Z,12.33
2019-02-21T01:50:17.074Z,12.13
2019-02-21T01:52:44.321Z,13.33
2019-02-21T01:55:11.577Z,12.30
2019-02-21T01:57:38.773Z,10.73
2019-02-21T02:00:08.170Z,10.27
2019-02-21T02:02:35.350Z,13.13
2019-02-21T02:05:02.514Z,17.80
2019-02-21T02:07:29.697Z,10.70
2019-02-21T02:09:56.880Z,11.10
2019-02-21T02:12:24.701Z,16.87
2019-02-21T02:14:51.881Z,11.60
2019-02-21T02:17:19.192Z,8.03
2019-02-21T02:19:46.386Z,19.37
2019-02-21T02:22:14.101Z,10.90
2019-02-21T02:24:41.301Z,10.30
2019-02-21T02:27:08.478Z,13.33
2019-02-21T02:29:35.647Z,16.97
2019-02-21T02:32:02.847Z,14.70
2019-02-21T02:34:30.023Z,13.43
2019-02-21T02:36:57.210Z,16.97
2019-02-21T02:39:24.385Z,15.37
2019-02-21T02:41:51.564Z,17.17
2019-02-21T02:44:18.757Z,17.13
2019-02-21T02:46:46.027Z,19.53
2019-02-21T02:49:13.690Z,18.17
2019-02-21T02:51:40.862Z,18.87
2019-02-21T02:54:08.072Z,17.03
2019-02-21T02:56:35.237Z,19.90
2019-02-21T02:59:02.406Z,23.83
2019-02-21T03:01:34.643Z,21.73
2019-02-21T03:03:58.495Z,19.97
2019-02-21T03:06:25.701Z,31.03
2019-02-21T03:08:52.867Z,20.57
2019-02-21T03:11:20.709Z,19.87
2019-02-21T03:13:48.164Z,22.83
2019-02-21T03:16:15.345Z,24.57
2019-02-21T03:18:42.531Z,21.83
2019-02-21T03:21:09.717Z,20.87
2019-02-21T03:23:36.918Z,19.57
2019-02-21T03:26:04.686Z,23.40
2019-02-21T03:28:31.886Z,23.93
2019-02-21T03:30:59.072Z,24.27
2019-02-21T03:33:26.358Z,25.90
2019-02-21T03:35:53.595Z,20.57
2019-02-21T03:38:20.775Z,24.90
2019-02-21T03:40:49.012Z,21.70
2019-02-21T03:43:16.194Z,24.00
2019-02-21T03:45:43.370Z,28.13
2019-02-21T03:48:10.535Z,23.10
2019-02-21T03:50:38.289Z,25.70
2019-02-21T03:53:05.468Z,23.97
2019-02-21T03:55:32.640Z,27.37
2019-02-21T03:57:59.855Z,27.07
2019-02-21T04:00:27.096Z,32.20
2019-02-21T04:02:54.694Z,28.20
2019-02-21T04:05:21.897Z,27.97
2019-02-21T04:07:49.616Z,27.53
2019-02-21T04:10:16.786Z,31.27
2019-02-21T04:12:43.981Z,25.13
2019-02-21T04:15:12.867Z,31.80
2019-02-21T04:17:40.047Z,28.20
2019-02-21T04:20:08.203Z,26.47
2019-02-21T04:22:35.392Z,33.50
2019-02-21T04:25:02.633Z,31.30
2019-02-21T04:27:29.820Z,31.07
2019-02-21T04:29:57.029Z,27.00
2019-02-21T04:32:24.207Z,28.40
2019-02-21T04:34:51.401Z,30.80
2019-02-21T04:37:19.096Z,31.50
2019-02-21T04:39:46.293Z,30.53
2019-02-21T04:42:13.474Z,31.23
2019-02-21T04:44:40.689Z,31.90
2019-02-21T04:47:07.935Z,36.87
2019-02-21T04:49:35.122Z,36.97
2019-02-21T04:52:02.378Z,29.43
2019-02-21T04:54:29.557Z,34.03
2019-02-21T04:56:56.735Z,30.37
2019-02-21T04:59:23.959Z,32.37
2019-02-21T05:01:51.134Z,34.23
2019-02-21T05:04:18.306Z,30.33
2019-02-21T05:06:45.504Z,33.20
2019-02-21T05:09:12.685Z,37.30
2019-02-21T05:11:39.874Z,34.93
2019-02-21T05:14:07.043Z,33.07
2019-02-21T05:16:34.227Z,35.73
2019-02-21T05:19:01.390Z,35.43
2019-02-21T05:21:28.555Z,36.73
2019-02-21T05:23:55.759Z,32.57
2019-02-21T05:26:24.577Z,39.90
2019-02-21T05:28:51.837Z,34.80
2019-02-21T05:31:36.088Z,33.73
2019-02-21T05:34:16.946Z,36.00
2019-02-21T05:37:01.937Z,40.63
2019-02-21T05:39:30.859Z,35.13
2019-02-21T05:42:05.221Z,31.13
2019-02-21T05:44:42.874Z,35.13
2019-02-21T05:47:17.525Z,36.63
2019-02-21T05:49:55.083Z,35.50
2019-02-21T05:52:26.826Z,34.57
2019-02-21T05:55:01.441Z,37.47
2019-02-21T05:57:35.955Z,38.17
2019-02-21T06:00:11.134Z,36.87
2019-02-21T06:02:53.493Z,31.97
2019-02-21T06:05:19.494Z,39.43
2019-02-21T06:08:00.708Z,34.57
2019-02-21T06:10:32.232Z,39.83
2019-02-21T06:13:01.047Z,42.30
2019-02-21T06:15:35.954Z,40.60
2019-02-21T06:18:07.728Z,38.53
2019-02-21T06:20:45.315Z,38.07
2019-02-21T06:23:16.548Z,38.57
2019-02-21T06:25:51.448Z,44.60
2019-02-21T06:28:18.720Z,32.97
2019-02-21T06:30:47.624Z,37.53
2019-02-21T06:33:14.825Z,37.47
2019-02-21T06:35:42.605Z,36.73
2019-02-21T06:38:09.778Z,41.90
2019-02-21T06:40:36.960Z,36.83
2019-02-21T06:43:04.579Z,41.47
2019-02-21T06:45:31.861Z,39.50
2019-02-21T06:47:59.117Z,44.63
2019-02-21T06:50:27.242Z,41.30
2019-02-21T06:52:54.734Z,40.33
2019-02-21T06:55:21.902Z,36.90
2019-02-21T06:57:49.112Z,40.33
2019-02-21T07:00:16.380Z,36.47
2019-02-21T07:02:43.628Z,41.40
2019-02-21T07:05:10.826Z,32.53
2019-02-21T07:07:38.709Z,45.77
2019-02-21T07:10:07.257Z,33.70
2019-02-21T07:12:34.527Z,42.53
2019-02-21T07:15:02.509Z,41.27
2019-02-21T07:17:29.717Z,43.07
2019-02-21T07:19:56.907Z,38.27
2019-02-21T07:22:24.083Z,34.07
2019-02-21T07:24:54.089Z,35.53
2019-02-21T07:27:21.557Z,42.13
2019-02-21T07:29:48.728Z,44.40
2019-02-21T07:32:15.905Z,35.40
2019-02-21T07:34:43.078Z,37.73
2019-02-21T07:37:18.107Z,35.80
2019-02-21T07:39:39.730Z,33.80
2019-02-21T07:42:06.895Z,35.57
2019-02-21T07:44:34.083Z,35.67
2019-02-21T07:47:01.246Z,36.17
2019-02-21T07:49:28.435Z,31.77
2019-02-21T07:51:55.605Z,32.63
2019-02-21T07:54:22.770Z,33.97
2019-02-21T07:56:50.506Z,35.43
2019-02-21T07:59:17.694Z,31.03
2019-02-21T08:01:45.394Z,29.20
2019-02-21T08:04:12.603Z,36.70
2019-02-21T08:06:39.802Z,31.87
2019-02-21T08:09:07.338Z,36.70
2019-02-21T08:11:34.522Z,36.53
2019-02-21T08:14:01.702Z,28.97
2019-02-21T08:16:29.069Z,35.80
2019-02-21T08:18:56.814Z,39.40
2019-02-21T08:21:24.020Z,30.50
2019-02-21T08:23:51.702Z,35.97
2019-02-21T08:26:20.107Z,35.20
2019-02-21T08:28:47.545Z,36.50
2019-02-21T08:31:14.718Z,31.20
2019-02-21T08:33:58.053Z,32.20
2019-02-21T08:36:17.894Z,24.73
2019-02-21T08:38:45.112Z,28.50
2019-02-21T08:41:14.578Z,28.03
2019-02-21T08:43:42.158Z,30.40
2019-02-21T08:46:09.342Z,35.57
2019-02-21T08:48:36.686Z,31.43
2019-02-21T08:51:06.098Z,35.70
2019-02-21T08:53:32.763Z,34.40
2019-02-21T08:55:59.940Z,33.33
2019-02-21T08:58:27.559Z,29.87
2019-02-21T09:00:54.769Z,31.07
2019-02-21T09:03:22.487Z,29.23
2019-02-21T09:05:49.670Z,32.50
2019-02-21T09:08:17.408Z,34.63
2019-02-21T09:10:44.597Z,38.80
2019-02-21T09:13:12.296Z,32.77
2019-02-21T09:15:39.479Z,32.83
2019-02-21T09:18:07.202Z,33.40
2019-02-21T09:20:34.372Z,33.10
2019-02-21T09:23:01.570Z,33.80
2019-02-21T09:25:28.742Z,34.43
2019-02-21T09:27:55.930Z,31.03
2019-02-21T09:30:23.118Z,35.23
2019-02-21T09:32:50.281Z,36.57
2019-02-21T09:35:17.488Z,35.07
2019-02-21T09:37:44.664Z,32.40
2019-02-21T09:40:13.534Z,37.87
2019-02-21T09:42:40.715Z,33.63
2019-02-21T09:45:14.834Z,33.97
2019-02-21T09:47:41.354Z,32.47
2019-02-21T09:50:09.494Z,32.67
2019-02-21T09:52:36.674Z,31.57
2019-02-21T09:55:05.243Z,35.63
2019-02-21T09:57:32.426Z,34.30
2019-02-21T09:59:59.615Z,31.63
2019-02-21T10:02:26.819Z,29.17
2019-02-21T10:05:04.213Z,32.77
2019-02-21T10:07:22.897Z,33.40
2019-02-21T10:09:50.070Z,26.90
2019-02-21T10:12:17.798Z,29.60
2019-02-21T10:14:44.989Z,30.03
2019-02-21T10:17:12.174Z,30.40
2019-02-21T10:19:39.380Z,33.33
2019-02-21T10:22:06.553Z,30.13
2019-02-21T10:24:33.732Z,29.43
2019-02-21T10:27:00.917Z,36.67
2019-02-21T10:29:29.765Z,32.30
2019-02-21T10:31:57.010Z,28.23
2019-02-21T10:34:24.190Z,28.30
2019-02-21T10:36:51.346Z,28.23
2019-02-21T10:39:19.001Z,26.83
2019-02-21T10:41:46.174Z,30.93
2019-02-21T10:44:13.350Z,26.57
2019-02-21T10:46:40.533Z,29.40
2019-02-21T10:49:07.724Z,22.40
2019-02-21T10:51:34.903Z,29.23
2019-02-21T10:54:02.096Z,29.43
2019-02-21T10:56:29.328Z,27.30
2019-02-21T10:58:57.007Z,26.97
2019-02-21T11:01:24.180Z,24.57
2019-02-21T11:03:51.363Z,24.73
2019-02-21T11:06:18.550Z,21.50
2019-02-21T11:08:45.736Z,23.37
2019-02-21T11:11:12.908Z,20.07
2019-02-21T11:13:40.694Z,23.53
2019-02-21T11:16:08.378Z,23.60
2019-02-21T11:18:35.575Z,22.97
2019-02-21T11:21:03.306Z,26.13
2019-02-21T11:23:30.490Z,22.83
2019-02-21T11:25:58.194Z,24.93
2019-02-21T11:28:25.367Z,24.50
2019-02-21T11:30:52.561Z,20.07
2019-02-21T11:33:20.336Z,23.47
2019-02-21T11:35:47.560Z,18.73
2019-02-21T11:38:14.767Z,20.13
2019-02-21T11:40:41.939Z,19.27
2019-02-21T11:43:09.589Z,22.70
2019-02-21T11:45:36.766Z,21.07
2019-02-21T11:48:04.506Z,20.83
2019-02-21T11:50:32.141Z,22.20
2019-02-21T11:52:59.303Z,20.10
2019-02-21T11:55:26.518Z,22.40
2019-02-21T11:57:53.761Z,19.20
2019-02-21T12:00:25.049Z,14.40
2019-02-21T12:02:52.225Z,18.80
2019-02-21T12:05:30.186Z,15.73
2019-02-21T12:07:48.318Z,16.57
2019-02-21T12:10:15.479Z,15.20
2019-02-21T12:12:43.165Z,18.40
2019-02-21T12:15:11.974Z,18.27
2019-02-21T12:17:39.163Z,13.73
2019-02-21T12:20:10.837Z,19.40
2019-02-21T12:22:37.997Z,19.23
2019-02-21T12:25:06.651Z,14.93
2019-02-21T12:27:33.837Z,13.97
2019-02-21T12:30:01.017Z,16.53
2019-02-21T12:32:28.207Z,19.10
2019-02-21T12:34:55.399Z,19.97
2019-02-21T12:37:22.579Z,16.07
2019-02-21T12:39:49.789Z,20.00
2019-02-21T12:42:16.963Z,18.60
2019-02-21T12:44:44.146Z,20.43
2019-02-21T12:47:11.332Z,18.00
2019-02-21T12:49:38.514Z,16.17
2019-02-21T12:52:06.285Z,17.00
2019-02-21T12:54:33.470Z,18.80
2019-02-21T12:57:00.643Z,14.53
2019-02-21T12:59:27.826Z,20.47
2019-02-21T13:01:55.005Z,14.13
2019-02-21T13:04:22.198Z,15.10
2019-02-21T13:06:49.437Z,19.17
2019-02-21T13:09:17.114Z,14.80
2019-02-21T13:11:44.289Z,14.53
2019-02-21T13:14:11.466Z,16.93
2019-02-21T13:16:38.662Z,14.33
2019-02-21T13:19:05.829Z,18.70
2019-02-21T13:21:33.009Z,15.07
2019-02-21T13:24:00.227Z,14.43
2019-02-21T13:26:27.422Z,13.00
2019-02-21T13:28:54.954Z,15.27
2019-02-21T13:31:22.754Z,16.63
2019-02-21T13:33:49.945Z,16.80
2019-02-21T13:36:17.182Z,14.10
2019-02-21T13:38:44.364Z,13.97
2019-02-21T13:41:11.544Z,13.97
2019-02-21T13:43:38.718Z,16.00
2019-02-21T13:46:05.898Z,14.77
2019-02-21T13:48:33.067Z,12.47
2019-02-21T13:51:00.237Z,15.47
2019-02-21T13:53:27.414Z,13.40
2019-02-21T13:55:54.578Z,15.20
2019-02-21T13:58:21.747Z,17.23
2019-02-21T14:00:49.398Z,16.83
2019-02-21T14:03:16.572Z,11.03
2019-02-21T14:05:43.739Z,16.17
2019-02-21T14:08:11.526Z,10.70
2019-02-21T14:10:38.699Z,12.70
2019-02-21T14:13:05.881Z,13.57
2019-02-21T14:15:33.126Z,12.83
2019-02-21T14:18:00.946Z,15.67
2019-02-21T14:20:28.126Z,16.77
2019-02-21T14:22:55.300Z,10.07
2019-02-21T14:25:22.510Z,10.30
2019-02-21T14:27:49.790Z,10.20
2019-02-21T14:30:18.659Z,12.57
2019-02-21T14:32:46.471Z,11.47
2019-02-21T14:35:14.204Z,14.03
2019-02-21T14:37:41.386Z,13.93
2019-02-21T14:40:12.514Z,10.87
2019-02-21T14:42:40.436Z,9.90
2019-02-21T14:45:12.713Z,14.07
2019-02-21T14:47:40.258Z,13.73
2019-02-21T14:50:09.366Z,15.70
2019-02-21T14:52:36.549Z,16.07
2019-02-21T14:55:05.076Z,11.93
2019-02-21T14:57:40.590Z,16.83
2019-02-21T15:00:01.206Z,12.20
2019-02-21T15:02:28.899Z,12.03
2019-02-21T15:04:56.068Z,16.33
2019-02-21T15:07:23.244Z,12.63
2019-02-21T15:09:50.487Z,12.13
2019-02-21T15:12:17.652Z,11.57
2019-02-21T15:14:44.853Z,12.23
2019-02-21T15:17:12.035Z,10.30
2019-02-21T15:19:39.208Z,11.53
2019-02-21T15:22:06.987Z,19.77
2019-02-21T15:24:34.470Z,17.27
2019-02-21T15:27:08.449Z,13.10
2019-02-21T15:29:31.098Z,10.47
2019-02-21T15:31:58.293Z,12.47
2019-02-21T15:34:25.470Z,13.23
2019-02-21T15:36:52.714Z,12.83
2019-02-21T15:39:20.486Z,11.73
2019-02-21T15:41:47.683Z,16.53
2019-02-21T15:44:14.862Z,15.63
2019-02-21T15:46:42.042Z,13.83
2019-02-21T15:49:09.761Z,13.13
2019-02-21T15:51:36.936Z,16.13
2019-02-21T15:54:04.102Z,11.50
2019-02-21T15:56:31.874Z,16.67
2019-02-21T15:58:59.758Z,13.77
2019-02-21T16:01:26.941Z,14.43
2019-02-21T16:03:54.673Z,19.90
2019-02-21T16:06:21.846Z,11.37
2019-02-21T16:08:49.094Z,25.67
2019-02-21T16:11:16.266Z,13.97
2019-02-21T16:13:43.453Z,11.67
2019-02-21T16:16:10.784Z,16.57
2019-02-21T16:18:38.535Z,11.77
2019-02-21T16:21:05.713Z,12.97
2019-02-21T16:23:33.335Z,10.00
2019-02-21T16:26:00.522Z,19.17
2019-02-21T16:28:27.740Z,17.93
2019-02-21T16:30:54.903Z,15.90
2019-02-21T16:33:22.066Z,13.37
2019-02-21T16:35:49.797Z,12.70
2019-02-21T16:38:16.958Z,13.67
2019-02-21T16:40:44.145Z,13.70
2019-02-21T16:43:11.335Z,11.87
2019-02-21T16:45:43.717Z,14.63
2019-02-21T16:48:07.399Z,12.47
2019-02-21T16:50:34.570Z,10.77
2019-02-21T16:53:01.756Z,11.60
2019-02-21T16:55:29.461Z,11.40
2019-02-21T16:57:56.705Z,19.73
2019-02-21T17:00:24.056Z,14.23
2019-02-21T17:02:51.252Z,11.27
2019-02-21T17:05:19.013Z,12.90
2019-02-21T17:07:46.262Z,10.57
2019-02-21T17:10:14.628Z,12.60
2019-02-21T17:12:41.806Z,10.97
2019-02-21T17:15:10.909Z,12.23
2019-02-21T17:17:38.167Z,13.33
2019-02-21T17:20:06.967Z,12.57
2019-02-21T17:22:34.151Z,13.37
2019-02-21T17:25:01.335Z,12.47
2019-02-21T17:27:28.569Z,12.83
2019-02-21T17:29:59.137Z,15.67
2019-02-21T17:32:25.390Z,10.77
2019-02-21T17:34:52.566Z,15.07
2019-02-21T17:37:24.835Z,11.90
2019-02-21T17:39:48.654Z,13.80
2019-02-21T17:42:15.813Z,11.30
2019-02-21T17:44:43.021Z,12.93
2019-02-21T17:47:10.190Z,12.73
2019-02-21T17:49:37.361Z,15.53
2019-02-21T17:52:05.029Z,14.67
2019-02-21T17:54:32.206Z,14.67
2019-02-21T17:56:59.470Z,12.53
2019-02-21T17:59:26.657Z,13.90
2019-02-21T18:01:53.902Z,13.87
2019-02-21T18:04:21.076Z,18.97
2019-02-21T18:06:48.258Z,14.37
2019-02-21T18:09:16.418Z,18.00
2019-02-21T18:11:43.990Z,16.43
2019-02-21T18:14:11.162Z,18.30
2019-02-21T18:16:38.343Z,17.73
2019-02-21T18:19:05.518Z,15.53
2019-02-21T18:21:32.715Z,19.37
2019-02-21T18:24:00.323Z,17.50
2019-02-21T18:26:27.519Z,21.50
2019-02-21T18:28:55.223Z,15.67
2019-02-21T18:31:22.392Z,19.23
2019-02-21T18:33:49.581Z,17.23
2019-02-21T18:36:16.762Z,20.33
2019-02-21T18:38:44.014Z,23.93
2019-02-21T18:41:13.370Z,25.57
2019-02-21T18:43:40.569Z,22.37
2019-02-21T18:46:07.764Z,21.93
2019-02-21T18:48:35.039Z,24.03
2019-02-21T18:51:02.255Z,22.00
2019-02-21T18:53:29.980Z,25.03
2019-02-21T18:55:57.151Z,25.97
2019-02-21T18:58:24.355Z,25.10
2019-02-21T19:00:51.535Z,22.13
2019-02-21T19:03:18.732Z,24.70
2019-02-21T19:05:45.915Z,31.63
2019-02-21T19:08:13.099Z,30.40
2019-02-21T19:10:40.279Z,27.43
2019-02-21T19:13:08.113Z,29.00
2019-02-21T19:15:36.122Z,28.00
2019-02-21T19:18:03.310Z,30.77
2019-02-21T19:20:31.557Z,28.30
2019-02-21T19:22:58.769Z,32.97
2019-02-21T19:25:25.952Z,29.67
2019-02-21T19:27:53.206Z,27.40
2019-02-21T19:30:25.703Z,30.33
2019-02-21T19:32:53.365Z,28.23
2019-02-21T19:35:20.531Z,31.30
2019-02-21T19:37:48.317Z,29.53
2019-02-21T19:40:15.490Z,32.50
2019-02-21T19:42:43.055Z,31.03
2019-02-21T19:45:10.235Z,30.27
2019-02-21T19:47:43.216Z,30.20
2019-02-21T19:50:10.477Z,34.17
2019-02-21T19:52:37.654Z,36.27
2019-02-21T19:55:06.069Z,34.90
2019-02-21T19:57:33.243Z,42.50
2019-02-21T20:00:00.435Z,29.17
2019-02-21T20:02:27.602Z,34.10
2019-02-21T20:04:55.819Z,34.23
2019-02-21T20:07:23.984Z,28.80
2019-02-21T20:09:51.490Z,30.73
2019-02-21T20:12:18.668Z,39.37
2019-02-21T20:14:47.792Z,36.97
2019-02-21T20:17:14.990Z,31.43
2019-02-21T20:19:42.195Z,33.60
2019-02-21T20:22:09.390Z,31.60
2019-02-21T20:24:36.658Z,39.43
2019-02-21T20:27:03.837Z,31.20
2019-02-21T20:29:31.024Z,31.43
2019-02-21T20:31:58.219Z,30.73
2019-02-21T20:34:25.402Z,30.07
2019-02-21T20:36:53.194Z,33.03
2019-02-21T20:39:20.387Z,32.70
2019-02-21T20:41:47.638Z,32.63
2019-02-21T20:44:15.362Z,35.33
2019-02-21T20:46:42.546Z,33.83
2019-02-21T20:49:09.760Z,30.17
2019-02-21T20:51:36.923Z,31.43
2019-02-21T20:54:04.120Z,32.83
2019-02-21T20:56:31.367Z,32.23
2019-02-21T20:58:58.569Z,35.63
2019-02-21T21:01:25.845Z,35.47
2019-02-21T21:03:53.011Z,30.07
2019-02-21T21:06:20.184Z,37.73
2019-02-21T21:08:47.380Z,37.93
2019-02-21T21:11:14.558Z,35.47
2019-02-21T21:13:44.126Z,36.77
2019-02-21T21:16:11.513Z,35.23
2019-02-21T21:18:38.693Z,31.83
2019-02-21T21:21:05.875Z,30.00
2019-02-21T21:23:33.056Z,35.57
2019-02-21T21:26:00.244Z,30.97
2019-02-21T21:28:27.426Z,27.90
2019-02-21T21:30:54.602Z,27.67
2019-02-21T21:33:21.814Z,30.67
2019-02-21T21:35:50.058Z,26.60
2019-02-21T21:38:24.121Z,28.93
2019-02-21T21:40:46.160Z,29.70
2019-02-21T21:43:13.412Z,29.37
2019-02-21T21:45:40.755Z,32.03
2019-02-21T21:48:07.927Z,29.13
2019-02-21T21:50:35.125Z,31.93
2019-02-21T21:53:02.319Z,28.03
2019-02-21T21:55:29.982Z,28.47
2019-02-21T21:57:57.153Z,29.57
2019-02-21T22:00:24.858Z,34.30
2019-02-21T22:02:52.044Z,35.30
2019-02-21T22:05:19.278Z,33.23
2019-02-21T22:07:49.074Z,30.10
2019-02-21T22:10:15.557Z,27.47
2019-02-21T22:12:42.745Z,29.07
2019-02-21T22:15:11.682Z,27.10
2019-02-21T22:17:38.861Z,29.07
2019-02-21T22:20:07.231Z,27.00
2019-02-21T22:22:34.403Z,27.33
2019-02-21T22:25:01.599Z,29.03
2019-02-21T22:27:28.831Z,28.17
2019-02-21T22:29:56.011Z,25.50
2019-02-21T22:32:23.185Z,25.67
2019-02-21T22:34:50.371Z,31.97
2019-02-21T22:37:17.559Z,24.60
2019-02-21T22:39:44.772Z,24.93
2019-02-21T22:42:11.982Z,29.97
2019-02-21T22:44:39.164Z,28.50
2019-02-21T22:47:06.335Z,28.00
2019-02-21T22:49:34.045Z,24.57
2019-02-21T22:52:01.218Z,24.13
2019-02-21T22:54:28.956Z,28.97
2019-02-21T22:56:56.177Z,27.10
2019-02-21T22:59:23.363Z,23.60
2019-02-21T23:01:50.575Z,25.57
2019-02-21T23:04:19.774Z,23.87
2019-02-21T23:06:48.578Z,24.83
2019-02-21T23:09:26.893Z,23.13
2019-02-21T23:11:46.393Z,21.63
2019-02-21T23:14:13.573Z,23.83
2019-02-21T23:16:40.751Z,21.57
2019-02-21T23:19:08.396Z,21.00
2019-02-21T23:21:35.598Z,20.63
2019-02-21T23:24:02.776Z,21.33
2019-02-21T23:26:29.973Z,23.67
2019-02-21T23:28:57.138Z,20.47
2019-02-21T23:31:24.875Z,18.03
2019-02-21T23:33:53.674Z,18.33
2019-02-21T23:36:21.402Z,18.73
2019-02-21T23:38:48.586Z,16.87
2019-02-21T23:41:15.765Z,16.47
2019-02-21T23:43:43.058Z,17.80
2019-02-21T23:46:10.526Z,14.83
2019-02-21T23:48:37.729Z,15.73
2019-02-21T23:51:05.355Z,14.73
2019-02-21T23:53:32.534Z,13.07
2019-02-21T23:55:59.712Z,13.90
2019-02-21T23:58:26.892Z,13.60
